sensor_id;sensor_type;location;lat;lon;timestamp;temperature;humidity
27368;DHT22;14839;48.106;11.618;2023-05-10T04:02:24;12.80;94.60
27368;DHT22;14839;48.106;11.618;2023-05-10T04:04:50;12.80;94.60
27368;DHT22;14839;48.106;11.618;2023-05-10T04:07:16;12.90;94.60
27368;DHT22;14839;48.106;11.618;2023-05-10T04:09:41;12.90;94.60
27368;DHT22;14839;48.106;11.618;2023-05-10T04:12:07;12.90;94.60
27368;DHT22;14839;48.106;11.618;2023-05-10T04:14:33;12.90;94.60
27368;DHT22;14839;48.106;11.618;2023-05-10T04:16:59;12.90;94.60
27368;DHT22;14839;48.106;11.618;2023-05-10T04:19:29;12.90;94.60
27368;DHT22;14839;48.106;11.618;2023-05-10T04:21:55;13.00;94.60
27368;DHT22;14839;48.106;11.618;2023-05-10T04:24:21;13.00;94.60
27368;DHT22;14839;48.106;11.618;2023-05-10T04:26:46;13.00;94.60
27368;DHT22;14839;48.106;11.618;2023-05-10T04:29:12;12.90;94.60
27368;DHT22;14839;48.106;11.618;2023-05-10T04:31:37;13.00;94.60
27368;DHT22;14839;48.106;11.618;2023-05-10T04:34:03;13.00;94.60
27368;DHT22;14839;48.106;11.618;2023-05-10T04:36:29;13.00;94.60
27368;DHT22;14839;48.106;11.618;2023-05-10T04:38:55;13.00;94.60
27368;DHT22;14839;48.106;11.618;2023-05-10T04:41:21;13.00;94.60
27368;DHT22;14839;48.106;11.618;2023-05-10T04:43:46;13.00;94.60
27368;DHT22;14839;48.106;11.618;2023-05-10T04:46:14;13.10;94.60
27368;DHT22;14839;48.106;11.618;2023-05-10T04:48:40;13.20;94.60
27368;DHT22;14839;48.106;11.618;2023-05-10T04:51:06;13.10;94.60
27368;DHT22;14839;48.106;11.618;2023-05-10T04:53:41;13.20;94.60
27368;DHT22;14839;48.106;11.618;2023-05-10T04:56:06;13.20;94.60
27368;DHT22;14839;48.106;11.618;2023-05-10T04:58:32;13.10;94.60
27368;DHT22;14839;48.106;11.618;2023-05-10T05:01:05;13.10;94.60
27368;DHT22;14839;48.106;11.618;2023-05-10T05:03:31;13.10;94.60
27368;DHT22;14839;48.106;11.618;2023-05-10T05:05:58;13.00;94.60
27368;DHT22;14839;48.106;11.618;2023-05-10T05:08:23;13.00;94.60
27368;DHT22;14839;48.106;11.618;2023-05-10T05:10:50;13.00;94.60
27368;DHT22;14839;48.106;11.618;2023-05-10T05:13:15;12.90;94.60
27368;DHT22;14839;48.106;11.618;2023-05-10T05:15:41;12.80;94.60
27368;DHT22;14839;48.106;11.618;2023-05-10T05:18:06;12.80;94.60
27368;DHT22;14839;48.106;11.618;2023-05-10T05:20:33;12.70;94.60
27368;DHT22;14839;48.106;11.618;2023-05-10T05:23:00;12.70;94.60
27368;DHT22;14839;48.106;11.618;2023-05-10T05:25:25;12.70;94.60
27368;DHT22;14839;48.106;11.618;2023-05-10T05:27:51;12.70;94.60
27368;DHT22;14839;48.106;11.618;2023-05-10T05:30:16;12.70;94.60
27368;DHT22;14839;48.106;11.618;2023-05-10T05:32:42;12.60;94.60
27368;DHT22;14839;48.106;11.618;2023-05-10T05:35:08;12.60;94.60
27368;DHT22;14839;48.106;11.618;2023-05-10T05:37:33;12.70;94.60
27368;DHT22;14839;48.106;11.618;2023-05-10T05:39:59;12.70;94.60
27368;DHT22;14839;48.106;11.618;2023-05-10T05:42:27;12.70;94.60
27368;DHT22;14839;48.106;11.618;2023-05-10T05:44:52;12.80;94.60
27368;DHT22;14839;48.106;11.618;2023-05-10T05:47:18;12.80;94.60
27368;DHT22;14839;48.106;11.618;2023-05-10T05:49:44;12.70;94.60
27368;DHT22;14839;48.106;11.618;2023-05-10T05:52:12;12.70;94.60
27368;DHT22;14839;48.106;11.618;2023-05-10T05:54:40;12.60;94.60
27368;DHT22;14839;48.106;11.618;2023-05-10T05:57:06;12.60;94.60
27368;DHT22;14839;48.106;11.618;2023-05-10T05:59:32;12.60;94.60
27368;DHT22;14839;48.106;11.618;2023-05-10T06:01:58;12.50;94.60
27368;DHT22;14839;48.106;11.618;2023-05-10T06:04:26;12.50;94.60
27368;DHT22;14839;48.106;11.618;2023-05-10T06:06:52;12.50;94.60
27368;DHT22;14839;48.106;11.618;2023-05-10T06:09:18;12.50;94.60
27368;DHT22;14839;48.106;11.618;2023-05-10T06:11:43;12.50;94.60
27368;DHT22;14839;48.106;11.618;2023-05-10T06:14:09;12.50;94.60
27368;DHT22;14839;48.106;11.618;2023-05-10T06:16:35;12.60;94.60
27368;DHT22;14839;48.106;11.618;2023-05-10T06:19:00;12.60;94.60
27368;DHT22;14839;48.106;11.618;2023-05-10T06:21:26;12.70;94.60
27368;DHT22;14839;48.106;11.618;2023-05-10T06:23:52;12.90;94.60
27368;DHT22;14839;48.106;11.618;2023-05-10T06:26:17;13.00;94.60
27368;DHT22;14839;48.106;11.618;2023-05-10T06:28:43;13.00;94.60
27368;DHT22;14839;48.106;11.618;2023-05-10T06:31:08;13.00;94.60
27368;DHT22;14839;48.106;11.618;2023-05-10T06:33:34;13.10;94.60
27368;DHT22;14839;48.106;11.618;2023-05-10T06:36:00;13.00;94.60
27368;DHT22;14839;48.106;11.618;2023-05-10T06:38:26;13.10;94.60
27368;DHT22;14839;48.106;11.618;2023-05-10T06:40:51;13.00;94.60
27368;DHT22;14839;48.106;11.618;2023-05-10T06:43:17;13.10;94.60
27368;DHT22;14839;48.106;11.618;2023-05-10T06:45:43;13.30;94.60
27368;DHT22;14839;48.106;11.618;2023-05-10T06:48:08;13.20;94.60
27368;DHT22;14839;48.106;11.618;2023-05-10T06:50:34;13.30;94.60
27368;DHT22;14839;48.106;11.618;2023-05-10T06:53:00;13.40;94.60
27368;DHT22;14839;48.106;11.618;2023-05-10T06:55:27;13.60;94.60
27368;DHT22;14839;48.106;11.618;2023-05-10T06:57:52;13.90;94.60
27368;DHT22;14839;48.106;11.618;2023-05-10T07:00:18;14.00;94.60
27368;DHT22;14839;48.106;11.618;2023-05-10T07:02:44;14.10;94.60
27368;DHT22;14839;48.106;11.618;2023-05-10T07:05:10;14.20;94.60
27368;DHT22;14839;48.106;11.618;2023-05-10T07:07:36;14.20;94.60
27368;DHT22;14839;48.106;11.618;2023-05-10T07:10:01;14.30;94.60
27368;DHT22;14839;48.106;11.618;2023-05-10T07:12:28;14.30;94.60
27368;DHT22;14839;48.106;11.618;2023-05-10T07:14:53;14.50;94.60
27368;DHT22;14839;48.106;11.618;2023-05-10T07:17:19;14.60;94.60
27368;DHT22;14839;48.106;11.618;2023-05-10T07:19:45;14.70;94.60
27368;DHT22;14839;48.106;11.618;2023-05-10T07:22:10;14.80;94.60
27368;DHT22;14839;48.106;11.618;2023-05-10T07:24:37;14.80;94.60
27368;DHT22;14839;48.106;11.618;2023-05-10T07:27:02;14.80;94.60
27368;DHT22;14839;48.106;11.618;2023-05-10T07:29:28;14.90;94.60
27368;DHT22;14839;48.106;11.618;2023-05-10T07:31:54;15.20;94.60
27368;DHT22;14839;48.106;11.618;2023-05-10T07:34:19;15.50;94.60
27368;DHT22;14839;48.106;11.618;2023-05-10T07:36:45;15.90;94.60
27368;DHT22;14839;48.106;11.618;2023-05-10T07:39:11;16.10;94.60
27368;DHT22;14839;48.106;11.618;2023-05-10T07:41:36;16.30;94.60
27368;DHT22;14839;48.106;11.618;2023-05-10T07:44:03;16.40;94.60
27368;DHT22;14839;48.106;11.618;2023-05-10T07:46:29;16.30;94.60
27368;DHT22;14839;48.106;11.618;2023-05-10T07:48:55;16.20;94.60
27368;DHT22;14839;48.106;11.618;2023-05-10T07:51:21;15.90;94.60
27368;DHT22;14839;48.106;11.618;2023-05-10T07:53:46;16.10;94.60
27368;DHT22;14839;48.106;11.618;2023-05-10T07:56:22;16.20;94.60
27368;DHT22;14839;48.106;11.618;2023-05-10T07:58:48;16.80;94.60
27368;DHT22;14839;48.106;11.618;2023-05-10T08:01:14;17.30;94.60
27368;DHT22;14839;48.106;11.618;2023-05-10T08:03:39;17.80;94.60
27368;DHT22;14839;48.106;11.618;2023-05-10T08:06:05;18.30;94.40
27368;DHT22;14839;48.106;11.618;2023-05-10T08:08:31;18.70;92.00
27368;DHT22;14839;48.106;11.618;2023-05-10T08:10:57;18.80;91.30
27368;DHT22;14839;48.106;11.618;2023-05-10T08:13:22;19.00;90.10
27368;DHT22;14839;48.106;11.618;2023-05-10T08:15:48;19.10;93.90
27368;DHT22;14839;48.106;11.618;2023-05-10T08:18:13;19.50;91.40
27368;DHT22;14839;48.106;11.618;2023-05-10T08:20:39;19.50;88.90
27368;DHT22;14839;48.106;11.618;2023-05-10T08:23:05;19.50;85.60
27368;DHT22;14839;48.106;11.618;2023-05-10T08:25:31;18.90;88.10
27368;DHT22;14839;48.106;11.618;2023-05-10T08:27:57;18.40;88.00
27368;DHT22;14839;48.106;11.618;2023-05-10T08:30:22;17.90;90.20
27368;DHT22;14839;48.106;11.618;2023-05-10T08:32:48;17.90;91.10
27368;DHT22;14839;48.106;11.618;2023-05-10T08:35:13;18.20;92.40
27368;DHT22;14839;48.106;11.618;2023-05-10T08:37:39;18.20;91.20
27368;DHT22;14839;48.106;11.618;2023-05-10T08:40:05;17.90;90.40
27368;DHT22;14839;48.106;11.618;2023-05-10T08:42:34;17.70;89.90
27368;DHT22;14839;48.106;11.618;2023-05-10T08:45:01;17.30;92.20
27368;DHT22;14839;48.106;11.618;2023-05-10T08:47:27;17.00;93.90
27368;DHT22;14839;48.106;11.618;2023-05-10T08:49:54;16.60;94.60
27368;DHT22;14839;48.106;11.618;2023-05-10T08:52:21;16.40;94.60
27368;DHT22;14839;48.106;11.618;2023-05-10T08:54:48;16.20;94.60
27368;DHT22;14839;48.106;11.618;2023-05-10T08:57:14;15.80;94.60
27368;DHT22;14839;48.106;11.618;2023-05-10T08:59:40;15.60;94.60
27368;DHT22;14839;48.106;11.618;2023-05-10T09:02:06;15.60;94.60
27368;DHT22;14839;48.106;11.618;2023-05-10T09:04:33;15.70;94.60
27368;DHT22;14839;48.106;11.618;2023-05-10T09:06:59;15.60;94.60
27368;DHT22;14839;48.106;11.618;2023-05-10T09:09:25;15.30;94.60
27368;DHT22;14839;48.106;11.618;2023-05-10T09:11:52;15.20;94.60
27368;DHT22;14839;48.106;11.618;2023-05-10T09:14:18;15.20;94.60
27368;DHT22;14839;48.106;11.618;2023-05-10T09:16:46;15.30;94.60
27368;DHT22;14839;48.106;11.618;2023-05-10T09:19:12;15.50;94.60
27368;DHT22;14839;48.106;11.618;2023-05-10T09:21:37;15.70;94.60
27368;DHT22;14839;48.106;11.618;2023-05-10T09:24:07;15.90;94.60
27368;DHT22;14839;48.106;11.618;2023-05-10T09:26:34;16.20;94.60
27368;DHT22;14839;48.106;11.618;2023-05-10T09:29:01;16.30;94.60
27368;DHT22;14839;48.106;11.618;2023-05-10T09:31:51;16.50;94.60
27368;DHT22;14839;48.106;11.618;2023-05-10T09:34:29;16.70;94.60
27368;DHT22;14839;48.106;11.618;2023-05-10T09:36:56;16.70;94.60
27368;DHT22;14839;48.106;11.618;2023-05-10T09:41:59;16.30;94.60
27368;DHT22;14839;48.106;11.618;2023-05-10T09:44:26;16.20;94.60
27368;DHT22;14839;48.106;11.618;2023-05-10T09:46:51;15.90;94.60
27368;DHT22;14839;48.106;11.618;2023-05-10T09:49:19;16.00;94.60
27368;DHT22;14839;48.106;11.618;2023-05-10T09:51:45;16.30;94.60
27368;DHT22;14839;48.106;11.618;2023-05-10T09:54:13;16.50;94.60
27368;DHT22;14839;48.106;11.618;2023-05-10T09:56:39;16.80;94.60
27368;DHT22;14839;48.106;11.618;2023-05-10T09:59:07;17.20;93.80
27368;DHT22;14839;48.106;11.618;2023-05-10T10:01:37;17.30;93.10
27368;DHT22;14839;48.106;11.618;2023-05-10T10:04:04;17.50;93.80
27368;DHT22;14839;48.106;11.618;2023-05-10T10:06:38;17.90;93.40
27368;DHT22;14839;48.106;11.618;2023-05-10T10:09:04;18.30;91.50
27368;DHT22;14839;48.106;11.618;2023-05-10T10:11:31;18.60;90.10
27368;DHT22;14839;48.106;11.618;2023-05-10T10:13:56;18.80;87.50
27368;DHT22;14839;48.106;11.618;2023-05-10T10:16:22;19.00;87.20
27368;DHT22;14839;48.106;11.618;2023-05-10T10:18:49;18.80;87.10
27368;DHT22;14839;48.106;11.618;2023-05-10T10:21:15;18.60;87.40
27368;DHT22;14839;48.106;11.618;2023-05-10T10:23:41;18.50;89.50
27368;DHT22;14839;48.106;11.618;2023-05-10T10:26:06;18.50;88.00
27368;DHT22;14839;48.106;11.618;2023-05-10T10:31:26;18.40;87.20
27368;DHT22;14839;48.106;11.618;2023-05-10T10:34:25;18.60;90.30
27368;DHT22;14839;48.106;11.618;2023-05-10T10:36:52;19.00;86.00
27368;DHT22;14839;48.106;11.618;2023-05-10T10:39:18;19.10;84.80
27368;DHT22;14839;48.106;11.618;2023-05-10T10:41:56;19.00;84.70
27368;DHT22;14839;48.106;11.618;2023-05-10T10:49:49;19.60;83.30
27368;DHT22;14839;48.106;11.618;2023-05-10T10:52:29;19.70;86.50
27368;DHT22;14839;48.106;11.618;2023-05-10T10:55:17;19.80;83.90
27368;DHT22;14839;48.106;11.618;2023-05-10T10:57:47;19.60;82.00
27368;DHT22;14839;48.106;11.618;2023-05-10T11:02:52;20.00;79.70
27368;DHT22;14839;48.106;11.618;2023-05-10T11:08:43;19.60;82.40
27368;DHT22;14839;48.106;11.618;2023-05-10T11:11:09;19.10;81.10
27368;DHT22;14839;48.106;11.618;2023-05-10T11:13:44;18.60;82.10
27368;DHT22;14839;48.106;11.618;2023-05-10T11:16:15;18.20;86.00
27368;DHT22;14839;48.106;11.618;2023-05-10T11:19:01;17.70;86.80
27368;DHT22;14839;48.106;11.618;2023-05-10T11:21:31;17.10;91.80
27368;DHT22;14839;48.106;11.618;2023-05-10T11:23:59;16.60;93.80
27368;DHT22;14839;48.106;11.618;2023-05-10T11:26:26;16.10;94.60
27368;DHT22;14839;48.106;11.618;2023-05-10T11:28:55;15.70;94.60
27368;DHT22;14839;48.106;11.618;2023-05-10T11:31:21;15.70;94.60
27368;DHT22;14839;48.106;11.618;2023-05-10T11:33:50;15.50;94.60
27368;DHT22;14839;48.106;11.618;2023-05-10T11:36:17;15.50;94.60
27368;DHT22;14839;48.106;11.618;2023-05-10T11:38:44;15.30;94.60
27368;DHT22;14839;48.106;11.618;2023-05-10T11:41:10;15.20;94.60
27368;DHT22;14839;48.106;11.618;2023-05-10T11:43:38;15.20;94.60
27368;DHT22;14839;48.106;11.618;2023-05-10T11:46:10;15.20;94.60
27368;DHT22;14839;48.106;11.618;2023-05-10T11:48:37;15.00;94.60
27368;DHT22;14839;48.106;11.618;2023-05-10T11:51:03;14.80;94.60
27368;DHT22;14839;48.106;11.618;2023-05-10T11:53:31;14.60;94.60
27368;DHT22;14839;48.106;11.618;2023-05-10T11:56:06;14.30;94.60
27368;DHT22;14839;48.106;11.618;2023-05-10T11:58:32;14.10;94.60
27368;DHT22;14839;48.106;11.618;2023-05-10T12:00:59;13.90;94.60
27368;DHT22;14839;48.106;11.618;2023-05-10T12:03:25;13.70;94.60
27368;DHT22;14839;48.106;11.618;2023-05-10T12:05:51;13.60;94.60
27368;DHT22;14839;48.106;11.618;2023-05-10T12:08:25;13.60;94.60
27368;DHT22;14839;48.106;11.618;2023-05-10T12:10:52;13.60;94.60
27368;DHT22;14839;48.106;11.618;2023-05-10T12:13:19;13.50;94.60
27368;DHT22;14839;48.106;11.618;2023-05-10T12:15:45;13.40;94.60
27368;DHT22;14839;48.106;11.618;2023-05-10T12:18:12;13.30;94.60
27368;DHT22;14839;48.106;11.618;2023-05-10T12:20:39;13.20;94.60
27368;DHT22;14839;48.106;11.618;2023-05-10T12:23:05;13.20;94.60
27368;DHT22;14839;48.106;11.618;2023-05-10T12:25:33;13.10;94.60
27368;DHT22;14839;48.106;11.618;2023-05-10T12:28:02;13.20;94.60
27368;DHT22;14839;48.106;11.618;2023-05-10T12:30:30;13.20;94.60
27368;DHT22;14839;48.106;11.618;2023-05-10T12:33:12;13.30;94.60
27368;DHT22;14839;48.106;11.618;2023-05-10T12:35:52;13.30;94.60
27368;DHT22;14839;48.106;11.618;2023-05-10T12:38:29;13.20;94.60
27368;DHT22;14839;48.106;11.618;2023-05-10T12:41:00;13.20;94.60
27368;DHT22;14839;48.106;11.618;2023-05-10T12:43:27;13.20;94.60
27368;DHT22;14839;48.106;11.618;2023-05-10T12:45:53;13.20;94.60
27368;DHT22;14839;48.106;11.618;2023-05-10T12:48:19;13.30;94.60
27368;DHT22;14839;48.106;11.618;2023-05-10T12:50:45;13.40;94.60
27368;DHT22;14839;48.106;11.618;2023-05-10T12:53:13;13.50;94.60
27368;DHT22;14839;48.106;11.618;2023-05-10T12:55:39;13.70;94.60
27368;DHT22;14839;48.106;11.618;2023-05-10T12:58:05;13.70;94.60
27368;DHT22;14839;48.106;11.618;2023-05-10T13:00:30;13.70;94.60
27368;DHT22;14839;48.106;11.618;2023-05-10T13:02:56;13.70;94.60
27368;DHT22;14839;48.106;11.618;2023-05-10T13:05:21;13.70;94.60
27368;DHT22;14839;48.106;11.618;2023-05-10T13:07:47;13.80;94.60
27368;DHT22;14839;48.106;11.618;2023-05-10T13:10:13;13.80;94.60
27368;DHT22;14839;48.106;11.618;2023-05-10T13:12:38;13.80;94.60
27368;DHT22;14839;48.106;11.618;2023-05-10T13:15:04;13.80;94.60
27368;DHT22;14839;48.106;11.618;2023-05-10T13:17:30;13.80;94.60
27368;DHT22;14839;48.106;11.618;2023-05-10T13:19:56;13.70;94.60
27368;DHT22;14839;48.106;11.618;2023-05-10T13:22:21;13.80;94.60
27368;DHT22;14839;48.106;11.618;2023-05-10T13:24:47;13.80;94.60
27368;DHT22;14839;48.106;11.618;2023-05-10T13:27:12;13.80;94.60
27368;DHT22;14839;48.106;11.618;2023-05-10T13:29:38;13.90;94.60
27368;DHT22;14839;48.106;11.618;2023-05-10T13:32:03;13.90;94.60
27368;DHT22;14839;48.106;11.618;2023-05-10T13:34:29;14.00;94.60
27368;DHT22;14839;48.106;11.618;2023-05-10T13:36:55;14.00;94.60
27368;DHT22;14839;48.106;11.618;2023-05-10T13:39:21;14.20;94.60
27368;DHT22;14839;48.106;11.618;2023-05-10T13:41:47;14.30;94.60
27368;DHT22;14839;48.106;11.618;2023-05-10T13:44:13;14.20;94.60
27368;DHT22;14839;48.106;11.618;2023-05-10T13:46:41;14.20;94.60
27368;DHT22;14839;48.106;11.618;2023-05-10T13:49:09;14.20;94.60
27368;DHT22;14839;48.106;11.618;2023-05-10T13:51:35;14.10;94.60
27368;DHT22;14839;48.106;11.618;2023-05-10T13:54:04;14.00;94.60
27368;DHT22;14839;48.106;11.618;2023-05-10T13:56:30;13.80;94.60
27368;DHT22;14839;48.106;11.618;2023-05-10T13:58:56;13.80;94.60
27368;DHT22;14839;48.106;11.618;2023-05-10T14:01:23;13.70;94.60
27368;DHT22;14839;48.106;11.618;2023-05-10T14:03:49;13.70;94.60
27368;DHT22;14839;48.106;11.618;2023-05-10T14:06:14;13.80;94.60
27368;DHT22;14839;48.106;11.618;2023-05-10T14:08:40;13.80;94.60
27368;DHT22;14839;48.106;11.618;2023-05-10T14:11:06;13.70;94.60
27368;DHT22;14839;48.106;11.618;2023-05-10T14:13:31;13.70;94.60
27368;DHT22;14839;48.106;11.618;2023-05-10T14:15:57;13.70;94.60
27368;DHT22;14839;48.106;11.618;2023-05-10T14:18:26;13.70;94.60
27368;DHT22;14839;48.106;11.618;2023-05-10T14:20:51;13.70;94.60
27368;DHT22;14839;48.106;11.618;2023-05-10T14:23:17;13.80;94.60
27368;DHT22;14839;48.106;11.618;2023-05-10T14:25:44;13.90;94.60
27368;DHT22;14839;48.106;11.618;2023-05-10T14:28:10;13.90;94.60
27368;DHT22;14839;48.106;11.618;2023-05-10T14:30:37;14.00;94.60
27368;DHT22;14839;48.106;11.618;2023-05-10T14:33:03;14.00;94.60
27368;DHT22;14839;48.106;11.618;2023-05-10T14:35:28;14.10;94.60
27368;DHT22;14839;48.106;11.618;2023-05-10T14:37:56;14.20;94.60
27368;DHT22;14839;48.106;11.618;2023-05-10T14:40:23;14.20;94.60
27368;DHT22;14839;48.106;11.618;2023-05-10T14:42:50;14.30;94.60
27368;DHT22;14839;48.106;11.618;2023-05-10T14:45:15;14.30;94.60
27368;DHT22;14839;48.106;11.618;2023-05-10T14:47:41;14.20;94.60
27368;DHT22;14839;48.106;11.618;2023-05-10T14:50:07;14.20;94.60
27368;DHT22;14839;48.106;11.618;2023-05-10T14:52:33;14.20;94.60
27368;DHT22;14839;48.106;11.618;2023-05-10T14:54:59;14.10;94.60
27368;DHT22;14839;48.106;11.618;2023-05-10T14:57:26;13.90;94.60
27368;DHT22;14839;48.106;11.618;2023-05-10T14:59:55;13.80;94.60
27368;DHT22;14839;48.106;11.618;2023-05-10T15:02:21;13.80;94.60
27368;DHT22;14839;48.106;11.618;2023-05-10T15:04:47;13.70;94.60
27368;DHT22;14839;48.106;11.618;2023-05-10T15:07:13;13.70;94.60
27368;DHT22;14839;48.106;11.618;2023-05-10T15:09:40;13.60;94.60
27368;DHT22;14839;48.106;11.618;2023-05-10T15:12:06;13.60;94.60
27368;DHT22;14839;48.106;11.618;2023-05-10T15:14:32;13.50;94.60
27368;DHT22;14839;48.106;11.618;2023-05-10T15:16:58;13.50;94.60
27368;DHT22;14839;48.106;11.618;2023-05-10T15:19:24;13.40;94.60
27368;DHT22;14839;48.106;11.618;2023-05-10T15:21:50;13.20;94.60
27368;DHT22;14839;48.106;11.618;2023-05-10T15:24:15;13.20;94.60
27368;DHT22;14839;48.106;11.618;2023-05-10T15:26:41;13.20;94.60
27368;DHT22;14839;48.106;11.618;2023-05-10T15:29:06;13.30;94.60
27368;DHT22;14839;48.106;11.618;2023-05-10T15:31:32;13.40;94.60
27368;DHT22;14839;48.106;11.618;2023-05-10T15:34:01;13.30;94.60
27368;DHT22;14839;48.106;11.618;2023-05-10T15:36:26;13.30;94.60
27368;DHT22;14839;48.106;11.618;2023-05-10T15:38:55;13.20;94.60
27368;DHT22;14839;48.106;11.618;2023-05-10T15:41:21;13.20;94.60
27368;DHT22;14839;48.106;11.618;2023-05-10T15:43:46;13.10;94.60
27368;DHT22;14839;48.106;11.618;2023-05-10T15:46:12;13.00;94.60
27368;DHT22;14839;48.106;11.618;2023-05-10T15:48:38;12.90;94.60
27368;DHT22;14839;48.106;11.618;2023-05-10T15:51:04;12.80;94.60
27368;DHT22;14839;48.106;11.618;2023-05-10T15:53:30;12.80;94.60
27368;DHT22;14839;48.106;11.618;2023-05-10T15:55:56;12.70;94.60
27368;DHT22;14839;48.106;11.618;2023-05-10T15:58:21;12.60;94.60
27368;DHT22;14839;48.106;11.618;2023-05-10T16:00:47;12.50;94.60
27368;DHT22;14839;48.106;11.618;2023-05-10T16:03:13;12.40;94.60
27368;DHT22;14839;48.106;11.618;2023-05-10T16:05:38;12.50;94.60
27368;DHT22;14839;48.106;11.618;2023-05-10T16:08:04;12.50;94.60
27368;DHT22;14839;48.106;11.618;2023-05-10T16:10:32;12.50;94.60
27368;DHT22;14839;48.106;11.618;2023-05-10T16:12:58;12.40;94.60
27368;DHT22;14839;48.106;11.618;2023-05-10T16:15:24;12.40;94.60
27368;DHT22;14839;48.106;11.618;2023-05-10T16:17:50;12.50;94.60
27368;DHT22;14839;48.106;11.618;2023-05-10T16:20:16;12.40;94.60
27368;DHT22;14839;48.106;11.618;2023-05-10T16:22:42;12.50;94.60
27368;DHT22;14839;48.106;11.618;2023-05-10T16:25:09;12.50;94.60
27368;DHT22;14839;48.106;11.618;2023-05-10T16:27:35;12.40;94.60
27368;DHT22;14839;48.106;11.618;2023-05-10T16:30:01;12.30;94.60
27368;DHT22;14839;48.106;11.618;2023-05-10T16:32:27;12.40;94.60
27368;DHT22;14839;48.106;11.618;2023-05-10T16:34:52;12.40;94.60
27368;DHT22;14839;48.106;11.618;2023-05-10T16:37:18;12.40;94.60
27368;DHT22;14839;48.106;11.618;2023-05-10T16:39:44;12.40;94.60
27368;DHT22;14839;48.106;11.618;2023-05-10T16:42:09;12.40;94.60
27368;DHT22;14839;48.106;11.618;2023-05-10T16:44:35;12.40;94.60
27368;DHT22;14839;48.106;11.618;2023-05-10T16:47:01;12.40;94.60
27368;DHT22;14839;48.106;11.618;2023-05-10T16:49:27;12.40;94.60
27368;DHT22;14839;48.106;11.618;2023-05-10T16:51:53;12.30;94.60
27368;DHT22;14839;48.106;11.618;2023-05-10T16:54:19;12.40;94.60
27368;DHT22;14839;48.106;11.618;2023-05-10T16:56:46;12.40;94.60
27368;DHT22;14839;48.106;11.618;2023-05-10T16:59:11;12.40;94.60
27368;DHT22;14839;48.106;11.618;2023-05-10T17:01:37;12.30;94.60
27368;DHT22;14839;48.106;11.618;2023-05-10T17:04:02;12.30;94.60
27368;DHT22;14839;48.106;11.618;2023-05-10T17:06:28;12.20;94.60
27368;DHT22;14839;48.106;11.618;2023-05-10T17:08:54;12.20;94.60
27368;DHT22;14839;48.106;11.618;2023-05-10T17:11:19;12.10;94.60
27368;DHT22;14839;48.106;11.618;2023-05-10T17:13:46;12.00;94.60
27368;DHT22;14839;48.106;11.618;2023-05-10T17:16:11;12.00;94.60
27368;DHT22;14839;48.106;11.618;2023-05-10T17:18:37;12.00;94.60
27368;DHT22;14839;48.106;11.618;2023-05-10T17:21:03;11.90;94.60
27368;DHT22;14839;48.106;11.618;2023-05-10T17:23:28;11.80;94.60
27368;DHT22;14839;48.106;11.618;2023-05-10T17:25:54;11.80;94.60
27368;DHT22;14839;48.106;11.618;2023-05-10T17:28:20;11.70;94.60
27368;DHT22;14839;48.106;11.618;2023-05-10T17:30:46;11.60;94.60
27368;DHT22;14839;48.106;11.618;2023-05-10T17:33:12;11.50;94.60
27368;DHT22;14839;48.106;11.618;2023-05-10T17:35:37;11.30;94.60
27368;DHT22;14839;48.106;11.618;2023-05-10T17:38:03;11.20;94.60
27368;DHT22;14839;48.106;11.618;2023-05-10T17:40:28;11.20;94.60
27368;DHT22;14839;48.106;11.618;2023-05-10T17:42:54;11.10;94.60
27368;DHT22;14839;48.106;11.618;2023-05-10T17:45:20;11.00;94.60
27368;DHT22;14839;48.106;11.618;2023-05-10T17:47:45;11.00;94.60
27368;DHT22;14839;48.106;11.618;2023-05-10T17:50:11;10.90;94.60
27368;DHT22;14839;48.106;11.618;2023-05-10T17:52:36;10.90;94.60
27368;DHT22;14839;48.106;11.618;2023-05-10T17:55:02;10.90;94.60
27368;DHT22;14839;48.106;11.618;2023-05-10T17:57:28;10.90;94.60
27368;DHT22;14839;48.106;11.618;2023-05-10T17:59:53;10.90;94.60
27368;DHT22;14839;48.106;11.618;2023-05-10T18:02:20;10.90;94.60
27368;DHT22;14839;48.106;11.618;2023-05-10T18:04:45;11.00;94.60
27368;DHT22;14839;48.106;11.618;2023-05-10T18:07:13;10.90;94.60
27368;DHT22;14839;48.106;11.618;2023-05-10T18:09:38;10.90;94.60
27368;DHT22;14839;48.106;11.618;2023-05-10T18:12:04;10.90;94.60
27368;DHT22;14839;48.106;11.618;2023-05-10T18:14:30;10.80;94.60
27368;DHT22;14839;48.106;11.618;2023-05-10T18:16:56;10.80;94.60
27368;DHT22;14839;48.106;11.618;2023-05-10T18:19:22;10.80;94.60
27368;DHT22;14839;48.106;11.618;2023-05-10T18:21:50;10.80;94.60
27368;DHT22;14839;48.106;11.618;2023-05-10T18:24:16;10.80;94.60
27368;DHT22;14839;48.106;11.618;2023-05-10T18:26:42;10.80;94.60
27368;DHT22;14839;48.106;11.618;2023-05-10T18:29:08;10.80;94.60
27368;DHT22;14839;48.106;11.618;2023-05-10T18:31:33;10.80;94.60
27368;DHT22;14839;48.106;11.618;2023-05-10T18:33:59;10.70;94.60
27368;DHT22;14839;48.106;11.618;2023-05-10T18:36:25;10.70;94.60
27368;DHT22;14839;48.106;11.618;2023-05-10T18:38:50;10.70;94.60
27368;DHT22;14839;48.106;11.618;2023-05-10T18:41:16;10.70;94.60
27368;DHT22;14839;48.106;11.618;2023-05-10T18:43:41;10.70;94.60
27368;DHT22;14839;48.106;11.618;2023-05-10T18:46:07;10.60;94.60
27368;DHT22;14839;48.106;11.618;2023-05-10T18:48:33;10.60;94.60
27368;DHT22;14839;48.106;11.618;2023-05-10T18:50:59;10.60;94.60
27368;DHT22;14839;48.106;11.618;2023-05-10T18:53:24;10.50;94.60
27368;DHT22;14839;48.106;11.618;2023-05-10T18:55:57;10.50;94.60
27368;DHT22;14839;48.106;11.618;2023-05-10T18:58:23;10.60;94.60
27368;DHT22;14839;48.106;11.618;2023-05-10T19:00:51;10.50;94.60
27368;DHT22;14839;48.106;11.618;2023-05-10T19:03:16;10.50;94.60
27368;DHT22;14839;48.106;11.618;2023-05-10T19:05:42;10.50;94.60
27368;DHT22;14839;48.106;11.618;2023-05-10T19:08:07;10.40;94.60
27368;DHT22;14839;48.106;11.618;2023-05-10T19:10:33;10.40;94.60
27368;DHT22;14839;48.106;11.618;2023-05-10T19:12:59;10.40;94.60
27368;DHT22;14839;48.106;11.618;2023-05-10T19:15:25;10.40;94.60
27368;DHT22;14839;48.106;11.618;2023-05-10T19:17:50;10.40;94.60
27368;DHT22;14839;48.106;11.618;2023-05-10T19:20:16;10.40;94.60
27368;DHT22;14839;48.106;11.618;2023-05-10T19:22:41;10.40;94.60
27368;DHT22;14839;48.106;11.618;2023-05-10T19:25:07;10.30;94.60
27368;DHT22;14839;48.106;11.618;2023-05-10T19:27:33;10.30;94.60
27368;DHT22;14839;48.106;11.618;2023-05-10T19:29:58;10.30;94.60